Archer, Nebraska
Current Conditions -  °F | °C
As of 5:55 AM on Monday 24 Nov 2014 (Local Time) from KAUH Reporting Station
Overcast Overcast  
Wind Chill: -10°   Ceiling: 2500
Heat Index: -2°   Visibility: 10mi
Dew Point: -7°   Wind: 23mph
Humidity: 70%   Direction: 320°NW
Pressure: 29.67"   Gusts: 29mph
Location:  41.17°N, 98.14°W
Report Text: KAUH 241155Z AUTO 32020G25KT 10SM OVC025 M02/M07 A2967 RMK AO2 70013 T10201068 10007 21024
Loading
Personal Weather Stations






























Interactive Weather Map New forecast layout! Learn more

10-Day Weather Forecast

Advertisements
Track Severe Weather on mobile